EGNX

East Midlands Airport

Nottingham, United Kingdom
METAR EGNX 131020Z 09008KT 9999 FEW029 03/01 Q1018
Observed Flight Rules
Dec-13 @ 10:20 UTC (40 minutes ago) Visual Flight Rules
Wind Visibility Clouds
90° at 8 knots 10,000+ meters
  • Few at 2,900' AGL
Temperatures Readings
Current 3°C / 37°F
Dewpoint 1°C / 34°F
Humidity 87%
Altimeter 30.06" Hg
Pressure 1018 hPa
Elevation 94
METAR EGNX 131020Z 09008KT 9999 FEW029 03/01 Q1018
Observed Flight Rules
Dec-13 @ 10:20 UTC
(40 minutes ago)
VFR
Wind Visibility
90° at 8 knots 10,000+ meters
Clouds
  • Few at 2,900' AGL
Temperature Dewpoint
3°C / 37°F 1°C / 34°F
Humidity Altimeter Pressure
87% 30.06" Hg 1018 hPa